18 a 25/6 - Fresco e inestable centro, cálido norte. Nevadas abundantes Cordillera y Patagonia.

Avatar de Usuario
Ale de Castelar
Mensajes: 28059
Registrado: Sab Mar 03, 2012 12:25 pm
Ubicación: Caballito

Re: 18 a 25/6 - Fresco e inestable centro, cálido norte. Nevadas abundantes Cordillera y Patagonia.

Mensaje por Ale de Castelar » Lun Jun 22, 2020 5:05 pm

LLao Llao y la liebre


Avatar de Usuario
Diecha
Mensajes: 14647
Registrado: Jue Ago 25, 2011 9:31 pm
Ubicación: Lomas de Zamora

Re: 18 a 25/6 - Fresco e inestable centro, cálido norte. Nevadas abundantes Cordillera y Patagonia.

Mensaje por Diecha » Lun Jun 22, 2020 6:19 pm

- Concordia18 hs: SAAC 222100Z 09008KT 7000 -TSRA FEW025 OVC040 FEW045CB 18/18 Q1008
- Gualeguaychú 18 hs: SAAG 222100Z 09008KT CAVOK 16/14 Q1008

Imagen
Imagen

- Rosario 18 hs: SAAR 222100Z 07009KT 9999 OVC025 18/09 Q1007
- Junín 18 hs: SAAJ 222100Z 09008KT 9999 SCT040 15/08 Q1008

Imagen

- San Fernando 18 hs: SADF 222100Z 12007KT CAVOK 15/12 Q1010
- Aeroparque 18 hs: SABE 222100Z 12011KT CAVOK 14/12 Q1010
- Ezeiza 18 hs: SAEZ 222100Z 14004KT CAVOK 12/11 Q1010

Imagen
Última edición por Diecha el Lun Jun 22, 2020 6:21 pm, editado 1 vez en total.

Avatar de Usuario
Ale de Castelar
Mensajes: 28059
Registrado: Sab Mar 03, 2012 12:25 pm
Ubicación: Caballito

Re: 18 a 25/6 - Fresco e inestable centro, cálido norte. Nevadas abundantes Cordillera y Patagonia.

Mensaje por Ale de Castelar » Lun Jun 22, 2020 6:35 pm

Alta montaña (parece que es del lado chileno)

https://www.elsol.com.ar/video-el-fuert ... GZUmywvAgQ


Avatar de Usuario
Diecha
Mensajes: 14647
Registrado: Jue Ago 25, 2011 9:31 pm
Ubicación: Lomas de Zamora

Re: 18 a 25/6 - Fresco e inestable centro, cálido norte. Nevadas abundantes Cordillera y Patagonia.

Mensaje por Diecha » Lun Jun 22, 2020 7:37 pm

Imagen

Imagen
Spoiler
Mostrar
Imagen
Imagen
Imagen
Imagen
Imagen
Imagen
Imagen
Imagen
Imagen
Imagen
Imagen
Imagen
Última edición por Diecha el Lun Jun 22, 2020 8:55 pm, editado 2 veces en total.

and96
Mensajes: 6308
Registrado: Mié Ago 15, 2012 2:32 pm
Ubicación: Tandil, BA

Re: 18 a 25/6 - Fresco e inestable centro, cálido norte. Nevadas abundantes Cordillera y Patagonia.

Mensaje por and96 » Lun Jun 22, 2020 7:48 pm

Se viene la lluvia por acá en instantes, 8 grados

Avatar de Usuario
Ale de Castelar
Mensajes: 28059
Registrado: Sab Mar 03, 2012 12:25 pm
Ubicación: Caballito

Re: 18 a 25/6 - Fresco e inestable centro, cálido norte. Nevadas abundantes Cordillera y Patagonia.

Mensaje por Ale de Castelar » Lun Jun 22, 2020 7:50 pm

Truenos en zona norte de GBA

Avatar de Usuario
Diecha
Mensajes: 14647
Registrado: Jue Ago 25, 2011 9:31 pm
Ubicación: Lomas de Zamora

Re: 18 a 25/6 - Fresco e inestable centro, cálido norte. Nevadas abundantes Cordillera y Patagonia.

Mensaje por Diecha » Lun Jun 22, 2020 8:19 pm

- San Fernando 20 hs: SADF 222300Z 07007KT 9999 -RA NSC 14/13 Q1009
- Aeroparque 20 hs: SABE 222300Z 11009KT 9999 BKN027 BKN075 14/13 Q1009
- Ezeiza 20 hs: SAEZ 222300Z 10008KT 9999 SCT041 BKN090 BKN200 13/11 Q1009

Imagen
Imagen

Avatar de Usuario
Fedex
Mensajes: 3145
Registrado: Jue Jul 17, 2014 3:30 pm
Ubicación: Villa Ballester, San Martin, Buenos Aires
Contactar:

Re: 18 a 25/6 - Fresco e inestable centro, cálido norte. Nevadas abundantes Cordillera y Patagonia.

Mensaje por Fedex » Lun Jun 22, 2020 8:21 pm

Intensa la actividad eléctrica al otro lado del charco

Posible SC la recuadrada. De refilón vamos a ligar algunas gotas x acá..

Imagen
Cada vez que se superan los 24°C de Td, un gatito renace.

#MuerteALasLineas

El corazón late y es suficiente

aficcionadouru
Mensajes: 176
Registrado: Sab Oct 29, 2011 5:59 am
Ubicación: Montevideo, Uruguay

Re: 18 a 25/6 - Fresco e inestable centro, cálido norte. Nevadas abundantes Cordillera y Patagonia.

Mensaje por aficcionadouru » Lun Jun 22, 2020 8:38 pm

Parece haber hecho splitting esa celdota cuando pasó por Carmelo

Danywilde
Mensajes: 2749
Registrado: Mar Ene 24, 2012 1:41 pm
Ubicación: Wilde, Buenos Aires

Re: 18 a 25/6 - Fresco e inestable centro, cálido norte. Nevadas abundantes Cordillera y Patagonia.

Mensaje por Danywilde » Lun Jun 22, 2020 9:09 pm

¡Granicera, malllll !

Responder